sensor_id;sensor_type;location;lat;lon;timestamp;pressure;altitude;pressure_sealevel;temperature;humidity
35910;BME280;22004;49.120;-0.200;2023-03-03T00:02:02;102213.53;;;8.16;60.79
35910;BME280;22004;49.120;-0.200;2023-03-03T00:04:27;102203.22;;;8.12;60.93
35910;BME280;22004;49.120;-0.200;2023-03-03T00:06:52;102202.78;;;8.07;61.01
35910;BME280;22004;49.120;-0.200;2023-03-03T00:09:18;102212.69;;;8.16;61.13
35910;BME280;22004;49.120;-0.200;2023-03-03T00:11:54;102213.28;;;8.19;60.86
35910;BME280;22004;49.120;-0.200;2023-03-03T00:14:27;102211.34;;;8.21;61.01
35910;BME280;22004;49.120;-0.200;2023-03-03T00:16:54;102209.72;;;7.55;60.77
35910;BME280;22004;49.120;-0.200;2023-03-03T00:19:20;102209.59;;;7.99;61.52
35910;BME280;22004;49.120;-0.200;2023-03-03T00:21:47;102210.97;;;8.15;61.29
35910;BME280;22004;49.120;-0.200;2023-03-03T00:26:40;102219.25;;;7.91;61.78
35910;BME280;22004;49.120;-0.200;2023-03-03T00:31:54;102223.94;;;7.98;61.73
35910;BME280;22004;49.120;-0.200;2023-03-03T00:34:28;102216.09;;;8.18;61.32
35910;BME280;22004;49.120;-0.200;2023-03-03T00:36:56;102222.06;;;8.10;61.18
35910;BME280;22004;49.120;-0.200;2023-03-03T00:39:28;102223.88;;;8.10;61.70
35910;BME280;22004;49.120;-0.200;2023-03-03T00:41:55;102225.56;;;8.22;61.29
35910;BME280;22004;49.120;-0.200;2023-03-03T00:44:32;102224.19;;;7.95;61.91
35910;BME280;22004;49.120;-0.200;2023-03-03T00:47:34;102225.16;;;8.06;61.04
35910;BME280;22004;49.120;-0.200;2023-03-03T00:52:37;102229.16;;;8.00;62.15
35910;BME280;22004;49.120;-0.200;2023-03-03T00:55:04;102228.91;;;8.03;61.62
35910;BME280;22004;49.120;-0.200;2023-03-03T00:57:30;102222.81;;;8.12;61.57
35910;BME280;22004;49.120;-0.200;2023-03-03T00:59:55;102219.38;;;8.10;61.12
35910;BME280;22004;49.120;-0.200;2023-03-03T01:02:20;102215.91;;;7.98;61.67
35910;BME280;22004;49.120;-0.200;2023-03-03T01:04:49;102221.19;;;7.89;61.87
35910;BME280;22004;49.120;-0.200;2023-03-03T01:07:15;102217.50;;;8.01;61.46
35910;BME280;22004;49.120;-0.200;2023-03-03T01:09:41;102220.41;;;7.98;61.77
35910;BME280;22004;49.120;-0.200;2023-03-03T01:12:07;102217.78;;;7.87;61.27
35910;BME280;22004;49.120;-0.200;2023-03-03T01:14:32;102208.69;;;7.78;62.10
35910;BME280;22004;49.120;-0.200;2023-03-03T01:16:58;102219.16;;;7.70;61.96
35910;BME280;22004;49.120;-0.200;2023-03-03T01:19:24;102221.50;;;7.63;61.97
35910;BME280;22004;49.120;-0.200;2023-03-03T01:21:49;102214.44;;;7.73;61.73
35910;BME280;22004;49.120;-0.200;2023-03-03T01:24:15;102213.00;;;7.58;61.60
35910;BME280;22004;49.120;-0.200;2023-03-03T01:26:40;102224.41;;;7.60;61.93
35910;BME280;22004;49.120;-0.200;2023-03-03T01:29:06;102222.69;;;7.70;61.63
35910;BME280;22004;49.120;-0.200;2023-03-03T01:31:32;102219.16;;;7.70;61.62
35910;BME280;22004;49.120;-0.200;2023-03-03T01:33:57;102217.00;;;7.64;61.55
35910;BME280;22004;49.120;-0.200;2023-03-03T01:36:23;102214.66;;;7.70;61.75
35910;BME280;22004;49.120;-0.200;2023-03-03T01:38:49;102214.97;;;7.56;61.57
35910;BME280;22004;49.120;-0.200;2023-03-03T01:41:15;102212.03;;;7.59;61.69
35910;BME280;22004;49.120;-0.200;2023-03-03T01:43:45;102206.06;;;7.56;61.80
35910;BME280;22004;49.120;-0.200;2023-03-03T01:48:57;102206.22;;;7.54;61.74
35910;BME280;22004;49.120;-0.200;2023-03-03T01:51:36;102193.34;;;7.48;61.45
35910;BME280;22004;49.120;-0.200;2023-03-03T01:54:11;102201.00;;;7.53;61.78
35910;BME280;22004;49.120;-0.200;2023-03-03T01:56:40;102195.31;;;7.46;61.99
35910;BME280;22004;49.120;-0.200;2023-03-03T01:59:14;102184.88;;;7.43;61.50
35910;BME280;22004;49.120;-0.200;2023-03-03T02:01:41;102192.25;;;7.50;61.72
35910;BME280;22004;49.120;-0.200;2023-03-03T02:04:07;102191.28;;;7.40;61.06
35910;BME280;22004;49.120;-0.200;2023-03-03T02:06:36;102186.78;;;7.41;61.86
35910;BME280;22004;49.120;-0.200;2023-03-03T02:09:31;102188.25;;;7.45;61.47
35910;BME280;22004;49.120;-0.200;2023-03-03T02:12:04;102186.69;;;7.42;61.45
35910;BME280;22004;49.120;-0.200;2023-03-03T02:14:30;102188.63;;;7.40;61.37
35910;BME280;22004;49.120;-0.200;2023-03-03T02:16:55;102191.50;;;7.60;61.29
35910;BME280;22004;49.120;-0.200;2023-03-03T02:22:01;102188.63;;;7.51;61.05
35910;BME280;22004;49.120;-0.200;2023-03-03T02:26:56;102188.00;;;7.48;61.09
35910;BME280;22004;49.120;-0.200;2023-03-03T02:29:21;102189.66;;;7.60;61.91
35910;BME280;22004;49.120;-0.200;2023-03-03T02:31:47;102181.09;;;7.45;61.79
35910;BME280;22004;49.120;-0.200;2023-03-03T02:34:12;102180.50;;;7.42;61.17
35910;BME280;22004;49.120;-0.200;2023-03-03T02:36:38;102176.63;;;7.46;60.98
35910;BME280;22004;49.120;-0.200;2023-03-03T02:44:20;102177.34;;;7.37;61.31
35910;BME280;22004;49.120;-0.200;2023-03-03T02:46:48;102175.72;;;7.57;60.79
35910;BME280;22004;49.120;-0.200;2023-03-03T02:49:16;102169.44;;;7.35;61.54
35910;BME280;22004;49.120;-0.200;2023-03-03T02:51:42;102173.56;;;7.39;61.08
35910;BME280;22004;49.120;-0.200;2023-03-03T02:54:09;102179.66;;;7.41;60.88
35910;BME280;22004;49.120;-0.200;2023-03-03T02:56:35;102181.44;;;7.41;61.10
35910;BME280;22004;49.120;-0.200;2023-03-03T02:59:02;102177.84;;;7.31;61.20
35910;BME280;22004;49.120;-0.200;2023-03-03T03:01:28;102173.22;;;7.33;60.80
35910;BME280;22004;49.120;-0.200;2023-03-03T03:03:56;102175.16;;;7.31;61.08
35910;BME280;22004;49.120;-0.200;2023-03-03T03:06:22;102182.59;;;7.27;60.87
35910;BME280;22004;49.120;-0.200;2023-03-03T03:08:48;102180.75;;;7.39;60.67
35910;BME280;22004;49.120;-0.200;2023-03-03T03:11:13;102183.47;;;7.16;61.01
35910;BME280;22004;49.120;-0.200;2023-03-03T03:13:38;102185.53;;;7.13;61.28
35910;BME280;22004;49.120;-0.200;2023-03-03T03:16:04;102180.97;;;7.36;61.18
35910;BME280;22004;49.120;-0.200;2023-03-03T03:18:29;102186.00;;;7.18;60.60
35910;BME280;22004;49.120;-0.200;2023-03-03T03:20:55;102181.25;;;7.10;61.37
35910;BME280;22004;49.120;-0.200;2023-03-03T03:23:20;102183.81;;;7.23;61.02
35910;BME280;22004;49.120;-0.200;2023-03-03T03:25:48;102180.78;;;7.16;60.95
35910;BME280;22004;49.120;-0.200;2023-03-03T03:28:15;102181.75;;;7.27;60.91
35910;BME280;22004;49.120;-0.200;2023-03-03T03:30:41;102188.19;;;7.13;61.06
35910;BME280;22004;49.120;-0.200;2023-03-03T03:33:08;102181.63;;;7.17;60.85
35910;BME280;22004;49.120;-0.200;2023-03-03T03:35:35;102179.81;;;7.17;61.08
35910;BME280;22004;49.120;-0.200;2023-03-03T03:38:00;102188.66;;;7.29;60.79
35910;BME280;22004;49.120;-0.200;2023-03-03T03:40:26;102179.56;;;7.09;60.43
35910;BME280;22004;49.120;-0.200;2023-03-03T03:42:52;102185.75;;;7.10;61.26
35910;BME280;22004;49.120;-0.200;2023-03-03T03:45:18;102182.97;;;7.11;60.74
35910;BME280;22004;49.120;-0.200;2023-03-03T03:47:43;102187.34;;;7.01;60.70
35910;BME280;22004;49.120;-0.200;2023-03-03T03:50:09;102186.22;;;7.15;60.79
35910;BME280;22004;49.120;-0.200;2023-03-03T03:52:35;102185.88;;;7.08;60.18
35910;BME280;22004;49.120;-0.200;2023-03-03T03:55:00;102189.88;;;7.14;60.84
35910;BME280;22004;49.120;-0.200;2023-03-03T03:57:26;102188.06;;;7.14;60.05
35910;BME280;22004;49.120;-0.200;2023-03-03T03:59:51;102200.09;;;7.09;61.05
35910;BME280;22004;49.120;-0.200;2023-03-03T04:02:17;102197.41;;;7.09;60.69
35910;BME280;22004;49.120;-0.200;2023-03-03T04:04:42;102196.94;;;7.04;60.72
35910;BME280;22004;49.120;-0.200;2023-03-03T04:07:08;102197.91;;;7.14;60.43
35910;BME280;22004;49.120;-0.200;2023-03-03T04:09:33;102186.72;;;7.09;60.61
35910;BME280;22004;49.120;-0.200;2023-03-03T04:11:59;102194.63;;;6.99;60.72
35910;BME280;22004;49.120;-0.200;2023-03-03T04:14:24;102194.25;;;7.26;60.29
35910;BME280;22004;49.120;-0.200;2023-03-03T04:16:49;102197.91;;;7.14;60.70
35910;BME280;22004;49.120;-0.200;2023-03-03T04:19:15;102199.59;;;7.04;60.33
35910;BME280;22004;49.120;-0.200;2023-03-03T04:21:40;102196.91;;;7.15;60.68
35910;BME280;22004;49.120;-0.200;2023-03-03T04:24:05;102197.19;;;7.12;60.10
35910;BME280;22004;49.120;-0.200;2023-03-03T04:26:31;102201.28;;;7.05;61.09
35910;BME280;22004;49.120;-0.200;2023-03-03T04:28:57;102205.31;;;6.99;60.26
35910;BME280;22004;49.120;-0.200;2023-03-03T04:31:23;102208.09;;;7.09;60.31
35910;BME280;22004;49.120;-0.200;2023-03-03T04:33:50;102203.88;;;7.06;60.08
35910;BME280;22004;49.120;-0.200;2023-03-03T04:36:15;102199.34;;;7.18;60.33
35910;BME280;22004;49.120;-0.200;2023-03-03T04:38:40;102199.72;;;7.13;60.79
35910;BME280;22004;49.120;-0.200;2023-03-03T04:41:06;102201.66;;;7.00;60.28
35910;BME280;22004;49.120;-0.200;2023-03-03T04:43:31;102202.53;;;7.12;60.00
35910;BME280;22004;49.120;-0.200;2023-03-03T04:45:56;102207.00;;;7.00;60.32
35910;BME280;22004;49.120;-0.200;2023-03-03T04:48:22;102203.00;;;7.06;60.72
35910;BME280;22004;49.120;-0.200;2023-03-03T04:50:47;102205.53;;;6.96;60.36
35910;BME280;22004;49.120;-0.200;2023-03-03T04:53:13;102198.75;;;7.03;60.35
35910;BME280;22004;49.120;-0.200;2023-03-03T04:55:38;102202.34;;;7.36;59.49
35910;BME280;22004;49.120;-0.200;2023-03-03T04:58:04;102202.63;;;7.10;60.04
35910;BME280;22004;49.120;-0.200;2023-03-03T05:00:30;102208.47;;;7.04;60.35
35910;BME280;22004;49.120;-0.200;2023-03-03T05:02:55;102207.25;;;7.08;60.53
35910;BME280;22004;49.120;-0.200;2023-03-03T05:05:21;102208.34;;;7.06;60.64
35910;BME280;22004;49.120;-0.200;2023-03-03T05:07:46;102206.28;;;6.98;60.36
35910;BME280;22004;49.120;-0.200;2023-03-03T05:10:11;102206.88;;;6.90;60.64
35910;BME280;22004;49.120;-0.200;2023-03-03T05:12:37;102212.81;;;7.05;60.18
35910;BME280;22004;49.120;-0.200;2023-03-03T05:15:03;102207.38;;;7.07;60.40
35910;BME280;22004;49.120;-0.200;2023-03-03T05:17:28;102211.72;;;7.19;60.04
35910;BME280;22004;49.120;-0.200;2023-03-03T05:19:54;102218.53;;;7.00;60.19
35910;BME280;22004;49.120;-0.200;2023-03-03T05:22:21;102220.75;;;7.07;60.07
35910;BME280;22004;49.120;-0.200;2023-03-03T05:24:47;102225.56;;;6.90;60.19
35910;BME280;22004;49.120;-0.200;2023-03-03T05:27:13;102227.16;;;6.82;60.42
35910;BME280;22004;49.120;-0.200;2023-03-03T05:29:39;102233.56;;;6.90;60.91
35910;BME280;22004;49.120;-0.200;2023-03-03T05:32:04;102223.28;;;7.08;60.40
35910;BME280;22004;49.120;-0.200;2023-03-03T05:34:29;102236.16;;;6.92;60.39
35910;BME280;22004;49.120;-0.200;2023-03-03T05:36:55;102228.38;;;6.89;60.26
35910;BME280;22004;49.120;-0.200;2023-03-03T05:39:20;102235.75;;;6.85;60.56
35910;BME280;22004;49.120;-0.200;2023-03-03T05:41:46;102233.34;;;6.93;59.61
35910;BME280;22004;49.120;-0.200;2023-03-03T05:44:11;102235.28;;;6.91;60.46
35910;BME280;22004;49.120;-0.200;2023-03-03T05:46:37;102230.53;;;6.84;60.18
35910;BME280;22004;49.120;-0.200;2023-03-03T05:49:02;102232.72;;;6.90;60.70
35910;BME280;22004;49.120;-0.200;2023-03-03T05:51:27;102232.50;;;6.82;60.05
35910;BME280;22004;49.120;-0.200;2023-03-03T05:53:53;102229.06;;;6.80;59.93
35910;BME280;22004;49.120;-0.200;2023-03-03T05:56:18;102239.16;;;6.87;60.40
35910;BME280;22004;49.120;-0.200;2023-03-03T05:58:44;102236.59;;;6.86;60.36
35910;BME280;22004;49.120;-0.200;2023-03-03T06:01:10;102238.81;;;6.92;59.92
35910;BME280;22004;49.120;-0.200;2023-03-03T06:03:35;102241.09;;;6.85;59.94
35910;BME280;22004;49.120;-0.200;2023-03-03T06:06:00;102241.59;;;6.90;60.46
35910;BME280;22004;49.120;-0.200;2023-03-03T06:08:26;102242.44;;;6.91;59.89
35910;BME280;22004;49.120;-0.200;2023-03-03T06:10:51;102239.53;;;6.94;59.54
35910;BME280;22004;49.120;-0.200;2023-03-03T06:13:16;102237.84;;;6.93;59.93
35910;BME280;22004;49.120;-0.200;2023-03-03T06:15:42;102246.69;;;6.82;59.84
35910;BME280;22004;49.120;-0.200;2023-03-03T06:18:08;102240.16;;;6.86;60.12
35910;BME280;22004;49.120;-0.200;2023-03-03T06:20:33;102246.34;;;6.98;59.66
35910;BME280;22004;49.120;-0.200;2023-03-03T06:23:00;102237.84;;;6.93;59.53
35910;BME280;22004;49.120;-0.200;2023-03-03T06:25:25;102241.34;;;7.05;59.46
35910;BME280;22004;49.120;-0.200;2023-03-03T06:27:51;102244.59;;;6.86;59.51
35910;BME280;22004;49.120;-0.200;2023-03-03T06:30:16;102250.56;;;6.89;59.84
35910;BME280;22004;49.120;-0.200;2023-03-03T06:32:43;102248.66;;;6.91;59.88
35910;BME280;22004;49.120;-0.200;2023-03-03T06:35:08;102250.06;;;6.84;59.88
35910;BME280;22004;49.120;-0.200;2023-03-03T06:37:34;102251.41;;;6.90;59.63
35910;BME280;22004;49.120;-0.200;2023-03-03T06:39:59;102258.72;;;6.88;59.42
35910;BME280;22004;49.120;-0.200;2023-03-03T06:42:24;102259.69;;;6.87;59.77
35910;BME280;22004;49.120;-0.200;2023-03-03T06:44:50;102260.75;;;6.84;59.60
35910;BME280;22004;49.120;-0.200;2023-03-03T06:47:15;102262.00;;;7.03;59.70
35910;BME280;22004;49.120;-0.200;2023-03-03T06:49:41;102268.41;;;6.89;59.11
35910;BME280;22004;49.120;-0.200;2023-03-03T06:52:17;102272.19;;;7.09;58.95
35910;BME280;22004;49.120;-0.200;2023-03-03T06:54:43;102280.44;;;7.06;59.37
35910;BME280;22004;49.120;-0.200;2023-03-03T06:57:28;102280.09;;;7.21;59.56
35910;BME280;22004;49.120;-0.200;2023-03-03T06:59:59;102282.75;;;7.10;58.96
35910;BME280;22004;49.120;-0.200;2023-03-03T07:02:26;102281.53;;;7.14;59.01
35910;BME280;22004;49.120;-0.200;2023-03-03T07:04:54;102282.88;;;7.20;58.96
35910;BME280;22004;49.120;-0.200;2023-03-03T07:07:24;102284.22;;;7.14;58.91
35910;BME280;22004;49.120;-0.200;2023-03-03T07:09:52;102283.00;;;7.30;59.08
35910;BME280;22004;49.120;-0.200;2023-03-03T07:12:20;102287.97;;;7.34;58.57
35910;BME280;22004;49.120;-0.200;2023-03-03T07:14:49;102296.50;;;7.17;58.96
35910;BME280;22004;49.120;-0.200;2023-03-03T07:17:21;102292.34;;;7.13;59.32
35910;BME280;22004;49.120;-0.200;2023-03-03T07:19:47;102302.91;;;7.14;59.40
35910;BME280;22004;49.120;-0.200;2023-03-03T07:22:23;102292.59;;;7.21;59.30
35910;BME280;22004;49.120;-0.200;2023-03-03T07:24:52;102293.94;;;7.27;58.72
35910;BME280;22004;49.120;-0.200;2023-03-03T07:29:46;102303.16;;;7.45;58.31
35910;BME280;22004;49.120;-0.200;2023-03-03T07:34:46;102305.25;;;7.41;58.71
35910;BME280;22004;49.120;-0.200;2023-03-03T07:37:21;102313.00;;;7.44;58.75
35910;BME280;22004;49.120;-0.200;2023-03-03T07:39:49;102315.66;;;7.44;58.79
35910;BME280;22004;49.120;-0.200;2023-03-03T07:42:31;102320.47;;;7.95;57.26
35910;BME280;22004;49.120;-0.200;2023-03-03T07:45:00;102317.19;;;9.70;52.57
35910;BME280;22004;49.120;-0.200;2023-03-03T07:47:33;102324.38;;;10.49;50.09
35910;BME280;22004;49.120;-0.200;2023-03-03T07:50:06;102321.25;;;10.92;49.13
35910;BME280;22004;49.120;-0.200;2023-03-03T07:52:42;102321.19;;;11.21;48.34
35910;BME280;22004;49.120;-0.200;2023-03-03T07:55:25;102327.38;;;11.31;48.07
35910;BME280;22004;49.120;-0.200;2023-03-03T07:57:53;102332.88;;;11.39;47.67
35910;BME280;22004;49.120;-0.200;2023-03-03T08:05:35;102341.50;;;10.57;50.39
35910;BME280;22004;49.120;-0.200;2023-03-03T08:16:19;102341.91;;;10.53;49.83
35910;BME280;22004;49.120;-0.200;2023-03-03T08:18:49;102342.75;;;10.44;50.58
35910;BME280;22004;49.120;-0.200;2023-03-03T08:21:22;102344.47;;;10.35;51.17
35910;BME280;22004;49.120;-0.200;2023-03-03T08:23:48;102351.81;;;10.43;50.75
35910;BME280;22004;49.120;-0.200;2023-03-03T08:26:16;102348.13;;;10.34;51.20
35910;BME280;22004;49.120;-0.200;2023-03-03T08:28:43;102351.13;;;10.79;50.46
35910;BME280;22004;49.120;-0.200;2023-03-03T08:31:08;102354.22;;;10.65;51.00
35910;BME280;22004;49.120;-0.200;2023-03-03T08:33:34;102357.75;;;10.85;50.46
35910;BME280;22004;49.120;-0.200;2023-03-03T08:36:00;102354.75;;;10.88;50.42
35910;BME280;22004;49.120;-0.200;2023-03-03T08:38:25;102356.31;;;11.10;49.95
35910;BME280;22004;49.120;-0.200;2023-03-03T08:40:51;102359.13;;;10.99;50.29
35910;BME280;22004;49.120;-0.200;2023-03-03T08:43:16;102367.47;;;11.05;50.53
35910;BME280;22004;49.120;-0.200;2023-03-03T08:45:46;102365.41;;;10.60;51.70
35910;BME280;22004;49.120;-0.200;2023-03-03T08:48:12;102372.25;;;10.15;53.06
35910;BME280;22004;49.120;-0.200;2023-03-03T08:50:38;102371.59;;;10.51;52.40
35910;BME280;22004;49.120;-0.200;2023-03-03T08:53:04;102372.03;;;10.85;51.51
35910;BME280;22004;49.120;-0.200;2023-03-03T08:55:29;102377.78;;;10.32;53.20
35910;BME280;22004;49.120;-0.200;2023-03-03T08:57:54;102378.22;;;10.38;52.73
35910;BME280;22004;49.120;-0.200;2023-03-03T09:00:20;102371.00;;;9.88;54.93
35910;BME280;22004;49.120;-0.200;2023-03-03T09:02:46;102364.13;;;10.45;53.07
35910;BME280;22004;49.120;-0.200;2023-03-03T09:05:12;102361.97;;;10.68;52.17
35910;BME280;22004;49.120;-0.200;2023-03-03T09:07:38;102363.41;;;10.72;52.76
35910;BME280;22004;49.120;-0.200;2023-03-03T09:10:05;102373.81;;;9.77;54.16
35910;BME280;22004;49.120;-0.200;2023-03-03T09:12:38;102375.50;;;9.78;54.60
35910;BME280;22004;49.120;-0.200;2023-03-03T09:17:41;102365.94;;;10.25;53.48
35910;BME280;22004;49.120;-0.200;2023-03-03T09:20:30;102380.91;;;9.57;55.18
35910;BME280;22004;49.120;-0.200;2023-03-03T09:25:49;102377.66;;;9.94;53.79
35910;BME280;22004;49.120;-0.200;2023-03-03T09:28:29;102378.91;;;9.49;54.74
35910;BME280;22004;49.120;-0.200;2023-03-03T09:30:59;102381.47;;;9.51;55.17
35910;BME280;22004;49.120;-0.200;2023-03-03T09:38:41;102391.25;;;9.10;54.68
35910;BME280;22004;49.120;-0.200;2023-03-03T09:44:06;102386.63;;;9.43;55.22
35910;BME280;22004;49.120;-0.200;2023-03-03T09:47:20;102396.28;;;9.86;53.84
35910;BME280;22004;49.120;-0.200;2023-03-03T10:05:50;102400.19;;;9.41;54.34
35910;BME280;22004;49.120;-0.200;2023-03-03T10:11:22;102395.41;;;10.16;52.79
35910;BME280;22004;49.120;-0.200;2023-03-03T10:19:40;102407.81;;;9.76;52.84
35910;BME280;22004;49.120;-0.200;2023-03-03T10:22:16;102410.25;;;9.89;52.84
35910;BME280;22004;49.120;-0.200;2023-03-03T10:30:34;102406.69;;;10.09;51.32
35910;BME280;22004;49.120;-0.200;2023-03-03T10:45:04;102414.69;;;9.69;51.99
35910;BME280;22004;49.120;-0.200;2023-03-03T11:01:10;102410.34;;;10.78;50.85
35910;BME280;22004;49.120;-0.200;2023-03-03T11:06:35;102418.66;;;9.65;51.96
35910;BME280;22004;49.120;-0.200;2023-03-03T11:11:52;102417.84;;;10.05;50.20
35910;BME280;22004;49.120;-0.200;2023-03-03T11:14:46;102406.25;;;10.14;51.29
35910;BME280;22004;49.120;-0.200;2023-03-03T11:17:25;102408.88;;;10.25;49.10
35910;BME280;22004;49.120;-0.200;2023-03-03T11:28:30;102412.56;;;10.03;49.00
35910;BME280;22004;49.120;-0.200;2023-03-03T11:34:31;102399.88;;;10.65;49.69
35910;BME280;22004;49.120;-0.200;2023-03-03T11:37:39;102395.50;;;10.45;49.24
35910;BME280;22004;49.120;-0.200;2023-03-03T11:40:11;102396.34;;;10.55;49.26
35910;BME280;22004;49.120;-0.200;2023-03-03T11:42:55;102400.13;;;10.33;47.82
35910;BME280;22004;49.120;-0.200;2023-03-03T11:45:36;102395.31;;;10.27;47.73
35910;BME280;22004;49.120;-0.200;2023-03-03T11:48:20;102389.81;;;10.48;49.62
35910;BME280;22004;49.120;-0.200;2023-03-03T11:56:22;102391.69;;;10.76;48.79
35910;BME280;22004;49.120;-0.200;2023-03-03T12:01:41;102394.34;;;10.57;47.65
35910;BME280;22004;49.120;-0.200;2023-03-03T12:04:18;102393.47;;;10.27;49.18
35910;BME280;22004;49.120;-0.200;2023-03-03T12:11:48;102378.25;;;10.86;47.88
35910;BME280;22004;49.120;-0.200;2023-03-03T12:20:06;102375.41;;;10.58;48.16
35910;BME280;22004;49.120;-0.200;2023-03-03T12:25:24;102369.34;;;10.95;49.58
35910;BME280;22004;49.120;-0.200;2023-03-03T12:28:08;102357.00;;;10.93;49.99
35910;BME280;22004;49.120;-0.200;2023-03-03T12:47:20;102353.31;;;11.03;49.43
35910;BME280;22004;49.120;-0.200;2023-03-03T12:53:00;102352.97;;;10.50;48.50
35910;BME280;22004;49.120;-0.200;2023-03-03T12:55:34;102352.50;;;10.93;49.11
35910;BME280;22004;49.120;-0.200;2023-03-03T13:03:59;102342.63;;;10.65;51.45
35910;BME280;22004;49.120;-0.200;2023-03-03T13:06:32;102351.59;;;10.05;52.37
35910;BME280;22004;49.120;-0.200;2023-03-03T13:09:37;102339.66;;;10.39;53.67
35910;BME280;22004;49.120;-0.200;2023-03-03T13:15:11;102344.09;;;10.19;53.64
35910;BME280;22004;49.120;-0.200;2023-03-03T13:17:43;102328.38;;;10.54;52.93
35910;BME280;22004;49.120;-0.200;2023-03-03T13:23:13;102330.44;;;10.22;53.57
35910;BME280;22004;49.120;-0.200;2023-03-03T13:26:09;102331.16;;;10.24;54.32
35910;BME280;22004;49.120;-0.200;2023-03-03T13:28:45;102331.03;;;10.35;53.56
35910;BME280;22004;49.120;-0.200;2023-03-03T13:31:23;102332.88;;;10.34;54.04
35910;BME280;22004;49.120;-0.200;2023-03-03T13:33:56;102333.84;;;10.53;53.87
35910;BME280;22004;49.120;-0.200;2023-03-03T13:41:50;102342.00;;;10.13;55.16
35910;BME280;22004;49.120;-0.200;2023-03-03T13:52:30;102332.50;;;10.08;55.44
35910;BME280;22004;49.120;-0.200;2023-03-03T13:57:50;102333.84;;;10.43;54.42
35910;BME280;22004;49.120;-0.200;2023-03-03T14:03:02;102338.25;;;10.44;54.16
35910;BME280;22004;49.120;-0.200;2023-03-03T14:05:48;102340.09;;;10.24;54.20
35910;BME280;22004;49.120;-0.200;2023-03-03T14:11:09;102339.47;;;10.21;55.12
35910;BME280;22004;49.120;-0.200;2023-03-03T14:16:18;102333.66;;;10.16;54.71
35910;BME280;22004;49.120;-0.200;2023-03-03T14:19:12;102340.22;;;10.42;54.17
35910;BME280;22004;49.120;-0.200;2023-03-03T14:21:47;102332.44;;;10.39;54.53
35910;BME280;22004;49.120;-0.200;2023-03-03T14:24:20;102338.25;;;10.25;54.88
35910;BME280;22004;49.120;-0.200;2023-03-03T14:26:55;102343.94;;;10.01;54.47
35910;BME280;22004;49.120;-0.200;2023-03-03T14:31:56;102337.84;;;9.99;54.94
35910;BME280;22004;49.120;-0.200;2023-03-03T14:36:49;102331.94;;;9.95;55.08
35910;BME280;22004;49.120;-0.200;2023-03-03T14:39:33;102329.75;;;9.79;55.03
35910;BME280;22004;49.120;-0.200;2023-03-03T14:42:00;102325.69;;;9.85;54.04
35910;BME280;22004;49.120;-0.200;2023-03-03T14:44:27;102319.78;;;9.91;54.39
35910;BME280;22004;49.120;-0.200;2023-03-03T14:49:35;102312.75;;;10.19;53.91
35910;BME280;22004;49.120;-0.200;2023-03-03T14:54:47;102310.94;;;10.20;54.50
35910;BME280;22004;49.120;-0.200;2023-03-03T14:57:19;102307.09;;;10.03;54.78
35910;BME280;22004;49.120;-0.200;2023-03-03T14:59:56;102314.31;;;10.22;54.26
35910;BME280;22004;49.120;-0.200;2023-03-03T15:05:18;102309.44;;;9.77;53.48
35910;BME280;22004;49.120;-0.200;2023-03-03T15:07:50;102308.44;;;9.78;54.05
35910;BME280;22004;49.120;-0.200;2023-03-03T15:10:29;102303.81;;;9.80;52.57
35910;BME280;22004;49.120;-0.200;2023-03-03T15:12:55;102289.28;;;10.02;53.70
35910;BME280;22004;49.120;-0.200;2023-03-03T15:15:23;102295.09;;;10.17;52.37
35910;BME280;22004;49.120;-0.200;2023-03-03T15:18:00;102299.34;;;10.09;52.91
35910;BME280;22004;49.120;-0.200;2023-03-03T15:20:50;102294.94;;;10.08;53.41
35910;BME280;22004;49.120;-0.200;2023-03-03T15:26:15;102302.41;;;9.86;55.07
35910;BME280;22004;49.120;-0.200;2023-03-03T15:29:01;102297.03;;;9.86;56.23
35910;BME280;22004;49.120;-0.200;2023-03-03T15:39:14;102296.59;;;9.80;55.30
35910;BME280;22004;49.120;-0.200;2023-03-03T15:41:51;102291.16;;;9.51;55.65
35910;BME280;22004;49.120;-0.200;2023-03-03T15:44:23;102297.06;;;9.45;56.74
35910;BME280;22004;49.120;-0.200;2023-03-03T15:49:42;102288.44;;;9.42;56.96
35910;BME280;22004;49.120;-0.200;2023-03-03T15:52:33;102290.88;;;9.54;56.59
35910;BME280;22004;49.120;-0.200;2023-03-03T15:55:23;102294.56;;;9.63;55.71
35910;BME280;22004;49.120;-0.200;2023-03-03T16:03:10;102298.13;;;9.02;55.97
35910;BME280;22004;49.120;-0.200;2023-03-03T16:05:43;102304.69;;;9.19;56.33
35910;BME280;22004;49.120;-0.200;2023-03-03T16:08:16;102302.53;;;9.44;56.53
35910;BME280;22004;49.120;-0.200;2023-03-03T16:19:34;102310.75;;;8.91;61.75
35910;BME280;22004;49.120;-0.200;2023-03-03T16:27:42;102317.47;;;9.37;59.50
35910;BME280;22004;49.120;-0.200;2023-03-03T16:30:25;102318.47;;;9.05;60.43
35910;BME280;22004;49.120;-0.200;2023-03-03T16:33:02;102323.84;;;9.15;60.33
35910;BME280;22004;49.120;-0.200;2023-03-03T16:35:32;102327.13;;;9.49;58.80
35910;BME280;22004;49.120;-0.200;2023-03-03T16:38:02;102328.69;;;9.21;58.63
35910;BME280;22004;49.120;-0.200;2023-03-03T16:40:43;102330.50;;;8.58;60.76
35910;BME280;22004;49.120;-0.200;2023-03-03T16:43:24;102335.31;;;8.96;60.49
35910;BME280;22004;49.120;-0.200;2023-03-03T16:45:57;102333.19;;;8.78;60.80
35910;BME280;22004;49.120;-0.200;2023-03-03T16:48:40;102329.16;;;8.84;61.08
35910;BME280;22004;49.120;-0.200;2023-03-03T16:51:22;102340.66;;;8.96;60.96
35910;BME280;22004;49.120;-0.200;2023-03-03T16:54:04;102339.09;;;8.93;60.45
35910;BME280;22004;49.120;-0.200;2023-03-03T17:04:50;102351.25;;;8.76;61.11
35910;BME280;22004;49.120;-0.200;2023-03-03T17:07:51;102357.59;;;8.75;61.06
35910;BME280;22004;49.120;-0.200;2023-03-03T17:10:37;102363.03;;;8.74;61.39
35910;BME280;22004;49.120;-0.200;2023-03-03T17:22:15;102375.31;;;8.56;62.03
35910;BME280;22004;49.120;-0.200;2023-03-03T17:38:30;102399.34;;;8.67;61.70
35910;BME280;22004;49.120;-0.200;2023-03-03T17:43:55;102416.00;;;8.38;62.58
35910;BME280;22004;49.120;-0.200;2023-03-03T17:46:39;102409.41;;;8.74;61.51
35910;BME280;22004;49.120;-0.200;2023-03-03T17:49:26;102418.59;;;8.06;63.05